Jaffrey, NH

2:39 AM EST on February 25, 2018 (GMT -0500)
Cathedral Estates | | Change Station
Active Advisory: Winter Weather Advisory

Elev 1260 ft 42.77 °N, 72.00 °W | Updated 6 seconds ago

Clear
Clear
31.5 °F
Feels Like 32 °F
N
0.7
Wind Variable Wind from SE
Gusts 1.1 mph

Today
High -- | Low -- °F
--% Chance of Precip.
Yesterday
High -- | Low -- °F
Precip. -- in
Pressure 30.32 in
Visibility 10.0 miles
Clouds Clear
Windchill 32 °F
Dew Point 24 °F
Humidity 75%
Rainfall 0.00 in
Snow Depth Not available.
6:30 AM 5:32 PM
Waxing Gibbous, 72% visible
METAR KAFN 250652Z AUTO 00000KT 10SM CLR 00/M02 A3027 RMK AO2 SLP265 T00001022
Pressure 30.32 in
Visibility 10.0 miles
Clouds Clear
Windchill 32 °F
Dew Point 24 °F
Humidity 75%
Rainfall 0.00 in
Snow Depth Not available.
6:30 AM 5:32 PM
Waxing Gibbous, 72% visible
METAR KAFN 250652Z AUTO 00000KT 10SM CLR 00/M02 A3027 RMK AO2 SLP265 T00001022

Get Your Daily Forecast Email!

Thanks for signing up!

Be on the lookout for a verification email in your inbox.

You'll start receiving severe weather alerts in your inbox..

×

10-Day Weather Forecast

Almanac

Astronomy

Feb. 25, 2018 Rise Set
Actual Time
Civil Twilight
Nautical Twilight
Astronomical Twilight
Moon
Length of Visible Light
Length of Day
Tomorrow will be .
, % of the Moon is Illuminated

Today's Extremes

State Highs State Lows

Community

WunderPhotos

Category 6

Welcome to Category 6. This is the collective home for Weather Underground's featured writeups by Dr. Jeff Masters (right), Bob Henson (left), Chris Burt, and other regular contributors.

Nearby

Air Quality

  Air Quality AQ Index Pollutant
Not available.

Snow Depth

Station Depth Elevation

Earthquake Activity

City Distance Mag. Time & Date
Minimum magnitude displayed is 2.5.

Coastal Water Temperatures

Place Temperature

Stations

Nearby Weather Stations

Station Location Temp. Windchill Dew Point Humidity Wind Precip. Elev Updated Type
                   

Watches & Warnings

Winter Weather Advisory
Issued: 9:44 PM EST Feb. 24, 2018 – National Weather Service

... Winter Weather Advisory remains in effect from 5 am to 4 PM
EST Sunday...

* what... mixed precipitation expected. Plan on slippery Road
conditions. Total snow accumulations of 2 to 4 inches and ice
accumulations of a light glaze are expected.

* Where... southern New Hampshire and York County Maine.

* When... from 5 am to 4 PM EST Sunday.

Precautionary/preparedness actions...

A Winter Weather Advisory means that periods of snow, sleet or
freezing rain will cause travel difficulties. Be prepared for
slippery roads and limited visibilities, and use caution while
driving. For a more precise forecast for your specific location...
go to www.Weather.Gov/gray.